createdAt,value
2018-11-04T00:00:31.698Z,0.00
2018-11-04T00:01:31.730Z,0.00
2018-11-04T00:02:31.758Z,0.00
2018-11-04T00:03:31.787Z,0.00
2018-11-04T00:04:31.818Z,0.00
2018-11-04T00:05:31.848Z,0.00
2018-11-04T00:06:31.879Z,0.00
2018-11-04T00:07:31.910Z,0.00
2018-11-04T00:08:31.944Z,0.00
2018-11-04T00:09:31.969Z,0.00
2018-11-04T00:10:32.001Z,0.00
2018-11-04T00:11:32.031Z,0.00
2018-11-04T00:12:32.060Z,0.00
2018-11-04T00:13:32.091Z,0.00
2018-11-04T00:14:32.121Z,0.00
2018-11-04T00:15:32.152Z,0.00
2018-11-04T00:16:32.182Z,0.00
2018-11-04T00:17:32.211Z,0.00
2018-11-04T00:18:32.243Z,0.00
2018-11-04T00:19:32.273Z,0.00
2018-11-04T00:20:32.304Z,0.00
2018-11-04T00:21:32.333Z,0.00
2018-11-04T00:22:32.364Z,0.00
2018-11-04T00:23:32.395Z,0.00
2018-11-04T00:24:32.424Z,0.00
2018-11-04T00:25:32.459Z,0.00
2018-11-04T00:26:32.486Z,0.00
2018-11-04T00:27:32.516Z,0.00
2018-11-04T00:28:32.546Z,0.00
2018-11-04T00:29:32.615Z,0.00
2018-11-04T00:30:32.607Z,0.00
2018-11-04T00:31:32.639Z,0.00
2018-11-04T00:32:32.668Z,0.00
2018-11-04T00:33:32.699Z,0.00
2018-11-04T00:34:32.745Z,0.00
2018-11-04T00:35:32.760Z,0.00
2018-11-04T00:36:32.790Z,0.00
2018-11-04T00:37:32.821Z,0.00
2018-11-04T00:38:32.851Z,0.00
2018-11-04T00:39:32.880Z,0.00
2018-11-04T00:40:32.911Z,0.00
2018-11-04T00:41:32.941Z,0.00
2018-11-04T00:42:32.972Z,0.00
2018-11-04T00:43:33.001Z,0.00
2018-11-04T00:44:33.031Z,0.00
2018-11-04T00:45:33.122Z,0.00
2018-11-04T00:46:33.119Z,0.00
2018-11-04T00:47:33.124Z,0.00
2018-11-04T00:48:33.226Z,0.00
2018-11-04T00:49:33.185Z,0.00
2018-11-04T00:50:33.215Z,0.00
2018-11-04T00:51:33.249Z,0.00
2018-11-04T00:52:33.274Z,0.00
2018-11-04T00:53:33.305Z,0.00
2018-11-04T00:54:33.335Z,0.00
2018-11-04T00:55:33.366Z,0.00
2018-11-04T00:56:33.396Z,0.00
2018-11-04T00:57:33.426Z,0.00
2018-11-04T00:58:33.456Z,0.00
2018-11-04T00:59:33.487Z,0.00
2018-11-04T01:00:33.517Z,0.00
2018-11-04T01:01:33.607Z,0.00
2018-11-04T01:02:33.585Z,0.00
2018-11-04T01:03:33.615Z,0.00
2018-11-04T01:04:33.645Z,0.00
2018-11-04T01:05:33.668Z,0.00
2018-11-04T01:06:33.704Z,0.00
2018-11-04T01:07:33.729Z,0.00
2018-11-04T01:08:33.758Z,0.00
2018-11-04T01:09:33.789Z,0.00
2018-11-04T01:10:33.820Z,0.00
2018-11-04T01:11:33.853Z,0.00
2018-11-04T01:12:33.881Z,0.00
2018-11-04T01:13:33.932Z,0.00
2018-11-04T01:14:33.942Z,0.00
2018-11-04T01:15:33.972Z,0.00
2018-11-04T01:16:34.001Z,0.00
2018-11-04T01:17:34.034Z,0.00
2018-11-04T01:18:34.063Z,0.00
2018-11-04T01:19:34.095Z,0.00
2018-11-04T01:20:34.122Z,0.00
2018-11-04T01:21:34.152Z,0.00
2018-11-04T01:22:34.184Z,0.00
2018-11-04T01:23:34.215Z,0.00
2018-11-04T01:24:34.355Z,0.00
2018-11-04T01:25:34.273Z,0.00
2018-11-04T01:26:34.303Z,0.00
2018-11-04T01:27:34.334Z,0.00
2018-11-04T01:28:34.364Z,0.00
2018-11-04T01:29:34.396Z,0.00
2018-11-04T01:30:34.425Z,0.00
2018-11-04T01:31:34.454Z,0.00
2018-11-04T01:32:34.483Z,0.00
2018-11-04T01:33:34.515Z,0.00
2018-11-04T01:34:34.544Z,0.00
2018-11-04T01:35:34.576Z,0.00
2018-11-04T01:36:34.608Z,0.00
2018-11-04T01:37:34.639Z,0.00
2018-11-04T01:38:34.665Z,0.00
2018-11-04T01:39:34.697Z,0.00
2018-11-04T01:40:34.726Z,0.00
2018-11-04T01:41:34.755Z,0.00
2018-11-04T01:42:34.789Z,0.00
2018-11-04T01:43:34.817Z,0.00
2018-11-04T01:44:34.846Z,0.00
2018-11-04T01:45:34.878Z,0.00
2018-11-04T01:46:34.910Z,0.00
2018-11-04T01:47:34.937Z,0.00
2018-11-04T01:48:34.967Z,0.00
2018-11-04T01:49:34.996Z,0.00
2018-11-04T01:50:35.027Z,0.00
2018-11-04T01:51:35.059Z,0.00
2018-11-04T01:52:35.085Z,0.00
2018-11-04T01:53:35.117Z,0.00
2018-11-04T01:54:35.148Z,0.00
2018-11-04T01:55:35.178Z,0.00
2018-11-04T01:56:35.206Z,0.00
2018-11-04T01:57:35.237Z,0.00
2018-11-04T01:58:35.267Z,0.00
2018-11-04T01:59:35.297Z,0.00
2018-11-04T02:00:35.326Z,0.00
2018-11-04T02:01:35.357Z,0.00
2018-11-04T02:02:35.387Z,0.00
2018-11-04T02:03:35.420Z,0.00
2018-11-04T02:04:35.446Z,0.00
2018-11-04T02:05:35.477Z,0.00
2018-11-04T02:06:35.509Z,0.00
2018-11-04T02:07:35.537Z,0.00
2018-11-04T02:08:35.567Z,0.00
2018-11-04T02:09:35.597Z,0.00
2018-11-04T02:10:35.628Z,0.00
2018-11-04T02:11:35.657Z,0.00
2018-11-04T02:12:35.687Z,0.00
2018-11-04T02:13:35.718Z,0.00
2018-11-04T02:14:35.747Z,0.00
2018-11-04T02:15:35.777Z,0.00
2018-11-04T02:16:35.808Z,0.00
2018-11-04T02:17:35.838Z,0.00
2018-11-04T02:18:35.868Z,0.00
2018-11-04T02:19:35.901Z,0.00
2018-11-04T02:20:35.926Z,0.00
2018-11-04T02:21:35.959Z,0.00
2018-11-04T02:22:35.988Z,0.00
2018-11-04T02:23:36.018Z,0.00
2018-11-04T02:24:36.048Z,0.00
2018-11-04T02:25:36.078Z,0.00
2018-11-04T02:26:36.133Z,0.00
2018-11-04T02:27:36.141Z,0.00
2018-11-04T02:28:36.167Z,0.00
2018-11-04T02:29:36.200Z,0.00
2018-11-04T02:30:36.229Z,0.00
2018-11-04T02:31:36.258Z,0.00
2018-11-04T02:32:36.288Z,0.00
2018-11-04T02:33:36.317Z,0.00
2018-11-04T02:34:36.347Z,0.00
2018-11-04T02:35:36.377Z,0.00
2018-11-04T02:36:36.415Z,0.00
2018-11-04T02:37:36.443Z,0.00
2018-11-04T02:38:36.466Z,0.00
2018-11-04T02:39:36.498Z,0.00
2018-11-04T02:40:36.534Z,0.00
2018-11-04T02:41:36.558Z,0.00
2018-11-04T02:42:36.588Z,0.00
2018-11-04T02:43:36.616Z,0.00
2018-11-04T02:44:36.645Z,0.00
2018-11-04T02:45:36.682Z,0.00
2018-11-04T02:46:36.705Z,0.00
2018-11-04T02:47:36.735Z,0.00
2018-11-04T02:48:36.765Z,0.00
2018-11-04T02:49:36.796Z,0.00
2018-11-04T02:50:36.825Z,0.00
2018-11-04T02:51:36.854Z,0.00
2018-11-04T02:52:36.886Z,0.00
2018-11-04T02:53:36.916Z,0.00
2018-11-04T02:54:36.945Z,0.00
2018-11-04T02:55:36.975Z,0.00
2018-11-04T02:56:37.003Z,0.00
2018-11-04T02:57:37.039Z,0.00
2018-11-04T02:58:37.064Z,0.00
2018-11-04T02:59:37.095Z,0.00
2018-11-04T03:00:37.124Z,0.00
2018-11-04T03:01:37.152Z,0.00
2018-11-04T03:02:37.183Z,0.00
2018-11-04T03:03:37.215Z,0.00
2018-11-04T03:04:37.241Z,0.00
2018-11-04T03:05:37.271Z,0.00
2018-11-04T03:06:37.303Z,0.00
2018-11-04T03:07:37.332Z,0.00
2018-11-04T03:08:37.361Z,0.00
2018-11-04T03:09:37.391Z,0.00
2018-11-04T03:10:37.420Z,0.00
2018-11-04T03:11:37.453Z,0.00
2018-11-04T03:12:37.479Z,0.00
2018-11-04T03:13:37.512Z,0.00
2018-11-04T03:14:37.538Z,0.00
2018-11-04T03:15:37.570Z,0.00
2018-11-04T03:16:37.599Z,0.00
2018-11-04T03:17:37.627Z,0.00
2018-11-04T03:18:37.657Z,0.00
2018-11-04T03:19:37.688Z,0.00
2018-11-04T03:20:37.716Z,0.00
2018-11-04T03:21:37.746Z,0.00
2018-11-04T03:22:37.778Z,0.00
2018-11-04T03:23:37.807Z,0.00
2018-11-04T03:24:37.866Z,0.00
2018-11-04T03:25:37.864Z,0.00
2018-11-04T03:26:37.895Z,0.00
2018-11-04T03:27:37.925Z,0.00
2018-11-04T03:28:37.953Z,0.00
2018-11-04T03:29:37.983Z,0.00
2018-11-04T03:30:38.012Z,0.00
2018-11-04T03:31:38.042Z,0.00
2018-11-04T03:32:38.077Z,0.00
2018-11-04T03:33:38.100Z,0.00
2018-11-04T03:34:38.131Z,0.00
2018-11-04T03:35:38.160Z,0.00
2018-11-04T03:36:38.188Z,0.00
2018-11-04T03:37:38.218Z,0.00
2018-11-04T03:38:38.247Z,0.00
2018-11-04T03:39:38.277Z,0.00
2018-11-04T03:40:38.307Z,0.00
2018-11-04T03:41:38.336Z,0.00
2018-11-04T03:42:38.372Z,0.00
2018-11-04T03:43:38.397Z,0.00
2018-11-04T03:44:38.423Z,0.00
2018-11-04T03:45:38.452Z,0.00
2018-11-04T03:46:38.484Z,0.00
2018-11-04T03:47:38.512Z,0.00
2018-11-04T03:48:38.541Z,0.00
2018-11-04T03:49:38.574Z,0.00
2018-11-04T03:50:38.600Z,0.00
2018-11-04T03:51:38.630Z,0.00
2018-11-04T03:52:38.661Z,0.00
2018-11-04T03:53:38.688Z,0.00
2018-11-04T03:54:38.719Z,0.00
2018-11-04T03:55:38.754Z,0.00
2018-11-04T03:56:38.777Z,0.00
2018-11-04T03:57:38.809Z,0.00
2018-11-04T03:58:38.836Z,0.00
2018-11-04T03:59:38.865Z,0.00
2018-11-04T04:00:38.893Z,0.00
2018-11-04T04:01:38.924Z,0.00
2018-11-04T04:02:38.954Z,0.00
2018-11-04T04:03:38.982Z,0.00
2018-11-04T04:04:39.011Z,0.00
2018-11-04T04:05:39.043Z,0.00
2018-11-04T04:06:39.069Z,0.00
2018-11-04T04:07:39.099Z,0.00
2018-11-04T04:08:39.127Z,0.00
2018-11-04T04:09:39.157Z,0.00
2018-11-04T04:10:39.188Z,0.00
2018-11-04T04:11:39.217Z,0.00
2018-11-04T04:12:39.246Z,0.00
2018-11-04T04:13:39.277Z,0.00
2018-11-04T04:14:39.303Z,0.00
2018-11-04T04:15:39.333Z,0.00
2018-11-04T04:16:39.362Z,0.00
2018-11-04T04:17:39.391Z,0.00
2018-11-04T04:18:39.425Z,0.00
2018-11-04T04:19:39.451Z,0.00
2018-11-04T04:20:39.479Z,0.00
2018-11-04T04:21:39.509Z,0.00
2018-11-04T04:22:39.536Z,0.00
2018-11-04T04:23:39.567Z,0.00
2018-11-04T04:24:39.594Z,0.00
2018-11-04T04:25:39.624Z,0.00
2018-11-04T04:26:39.653Z,0.00
2018-11-04T04:27:39.682Z,0.00
2018-11-04T04:28:39.711Z,0.00
2018-11-04T04:29:39.740Z,0.00
2018-11-04T04:30:39.770Z,0.00
2018-11-04T04:31:39.799Z,0.00
2018-11-04T04:32:39.827Z,0.00
2018-11-04T04:33:39.855Z,0.00
2018-11-04T04:34:39.885Z,0.00
2018-11-04T04:35:39.914Z,0.00
2018-11-04T04:36:39.941Z,0.00
2018-11-04T04:37:39.973Z,0.00
2018-11-04T04:38:39.999Z,0.00
2018-11-04T04:39:40.078Z,0.00
2018-11-04T04:40:40.057Z,0.00
2018-11-04T04:41:40.085Z,0.00
2018-11-04T04:42:40.115Z,0.00
2018-11-04T04:43:40.147Z,0.00
2018-11-04T04:44:40.172Z,0.00
2018-11-04T04:45:40.204Z,0.00
2018-11-04T04:46:40.230Z,0.00
2018-11-04T04:47:40.258Z,0.00
2018-11-04T04:48:40.286Z,0.00
2018-11-04T04:49:40.315Z,0.00
2018-11-04T04:50:40.347Z,0.00
2018-11-04T04:51:40.373Z,0.00
2018-11-04T04:52:40.400Z,0.00
2018-11-04T04:53:40.429Z,0.00
2018-11-04T04:54:40.462Z,0.00
2018-11-04T04:55:40.487Z,0.00
2018-11-04T04:56:40.515Z,0.00
2018-11-04T04:57:40.543Z,0.00
2018-11-04T04:58:40.573Z,0.00
2018-11-04T04:59:40.604Z,0.00
2018-11-04T05:00:40.631Z,0.00
2018-11-04T05:01:40.661Z,0.00
2018-11-04T05:02:40.685Z,0.00
2018-11-04T05:03:40.714Z,0.00
2018-11-04T05:04:40.741Z,0.00
2018-11-04T05:05:40.770Z,0.00
2018-11-04T05:06:40.799Z,0.00
2018-11-04T05:07:40.828Z,0.00
2018-11-04T05:08:40.855Z,0.00
2018-11-04T05:09:40.895Z,0.00
2018-11-04T05:10:40.913Z,0.00
2018-11-04T05:11:40.941Z,0.00
2018-11-04T05:12:40.968Z,0.00
2018-11-04T05:13:41.003Z,0.00
2018-11-04T05:14:41.025Z,0.00
2018-11-04T05:15:41.055Z,0.00
2018-11-04T05:16:41.080Z,0.00
2018-11-04T05:17:41.110Z,0.00
2018-11-04T05:18:41.138Z,0.00
2018-11-04T05:19:41.168Z,0.00
2018-11-04T05:20:41.194Z,0.00
2018-11-04T05:21:41.226Z,0.00
2018-11-04T05:22:41.252Z,0.00
2018-11-04T05:23:41.279Z,0.00
2018-11-04T05:24:41.307Z,0.00
2018-11-04T05:25:41.335Z,0.00
2018-11-04T05:26:41.364Z,0.00
2018-11-04T05:27:41.392Z,0.00
2018-11-04T05:28:41.423Z,0.00
2018-11-04T05:29:41.447Z,0.00
2018-11-04T05:30:41.475Z,0.00
2018-11-04T05:31:41.505Z,0.00
2018-11-04T05:32:41.530Z,0.00
2018-11-04T05:33:41.558Z,0.00
2018-11-04T05:34:41.590Z,0.00
2018-11-04T05:35:41.615Z,0.00
2018-11-04T05:36:41.643Z,0.00
2018-11-04T05:37:41.671Z,0.00
2018-11-04T05:38:41.699Z,0.00
2018-11-04T05:39:41.728Z,0.00
2018-11-04T05:40:41.753Z,0.00
2018-11-04T05:41:41.833Z,0.00
2018-11-04T05:42:41.811Z,0.00
2018-11-04T05:43:41.839Z,0.00
2018-11-04T05:44:41.867Z,0.00
2018-11-04T05:45:41.895Z,0.00
2018-11-04T05:46:41.923Z,0.00
2018-11-04T05:47:41.950Z,0.00
2018-11-04T05:48:41.978Z,4.00
2018-11-04T05:49:42.006Z,4.00
2018-11-04T05:50:42.034Z,4.00
2018-11-04T05:51:42.064Z,4.00
2018-11-04T05:52:42.095Z,4.00
2018-11-04T05:53:42.119Z,8.00
2018-11-04T05:54:42.146Z,8.00
2018-11-04T05:55:42.174Z,8.00
2018-11-04T05:56:42.201Z,12.00
2018-11-04T05:57:42.229Z,12.00
2018-11-04T05:58:42.258Z,16.00
2018-11-04T05:59:42.285Z,16.00
2018-11-04T06:00:42.314Z,24.00
2018-11-04T06:01:42.340Z,28.00
2018-11-04T06:02:42.368Z,32.00
2018-11-04T06:03:42.398Z,36.00
2018-11-04T06:04:42.423Z,44.00
2018-11-04T06:05:42.452Z,52.00
2018-11-04T06:06:42.479Z,60.00
2018-11-04T06:07:42.508Z,68.00
2018-11-04T06:08:42.534Z,76.00
2018-11-04T06:09:42.563Z,88.00
2018-11-04T06:10:42.590Z,100.00
2018-11-04T06:11:42.619Z,116.00
2018-11-04T06:12:42.645Z,128.00
2018-11-04T06:13:42.673Z,144.00
2018-11-04T06:14:42.702Z,164.00
2018-11-04T06:15:42.728Z,180.00
2018-11-04T06:16:42.756Z,204.00
2018-11-04T06:17:42.782Z,220.00
2018-11-04T06:18:42.812Z,240.00
2018-11-04T06:19:42.838Z,268.00
2018-11-04T06:20:42.866Z,296.00
2018-11-04T06:21:42.894Z,324.00
2018-11-04T06:22:42.923Z,348.00
2018-11-04T06:23:42.949Z,380.00
2018-11-04T06:24:42.976Z,412.00
2018-11-04T06:25:43.003Z,444.00
2018-11-04T06:26:43.031Z,480.00
2018-11-04T06:27:43.062Z,520.00
2018-11-04T06:28:43.085Z,556.00
2018-11-04T06:29:43.114Z,596.00
2018-11-04T06:30:43.140Z,640.00
2018-11-04T06:31:43.169Z,692.00
2018-11-04T06:32:43.196Z,740.00
2018-11-04T06:33:43.224Z,788.00
2018-11-04T06:34:43.392Z,836.00
2018-11-04T06:35:43.280Z,888.00
2018-11-04T06:36:43.310Z,948.00
2018-11-04T06:37:43.334Z,1008.00
2018-11-04T06:38:43.360Z,1072.00
2018-11-04T06:39:43.388Z,1128.00
2018-11-04T06:40:43.415Z,1204.00
2018-11-04T06:41:43.442Z,1264.00
2018-11-04T06:42:43.472Z,1336.00
2018-11-04T06:43:43.498Z,1408.00
2018-11-04T06:44:43.526Z,1472.00
2018-11-04T06:45:43.553Z,1500.00
2018-11-04T06:46:43.580Z,1496.00
2018-11-04T06:47:43.711Z,1492.00
2018-11-04T06:48:43.635Z,1500.00
2018-11-04T06:49:43.662Z,1608.00
2018-11-04T06:50:43.744Z,1832.00
2018-11-04T06:51:43.721Z,1940.00
2018-11-04T06:52:43.747Z,2020.00
2018-11-04T06:53:43.773Z,2104.00
2018-11-04T06:54:43.802Z,2164.00
2018-11-04T06:55:43.830Z,2212.00
2018-11-04T06:56:43.857Z,2284.00
2018-11-04T06:57:43.885Z,2372.00
2018-11-04T06:58:43.912Z,2444.00
2018-11-04T06:59:43.952Z,2508.00
2018-11-04T07:00:44.002Z,2572.00
2018-11-04T07:01:43.994Z,2696.00
2018-11-04T07:02:44.023Z,2872.00
2018-11-04T07:03:44.051Z,3020.00
2018-11-04T07:04:44.077Z,3140.00
2018-11-04T07:05:44.105Z,3272.00
2018-11-04T07:06:44.132Z,3356.00
2018-11-04T07:07:44.163Z,3396.00
2018-11-04T07:08:44.200Z,3364.00
2018-11-04T07:09:44.224Z,3312.00
2018-11-04T07:10:44.249Z,3212.00
2018-11-04T07:11:44.272Z,3176.00
2018-11-04T07:12:44.300Z,3160.00
2018-11-04T07:13:44.329Z,3212.00
2018-11-04T07:14:44.356Z,3332.00
2018-11-04T07:15:44.385Z,3528.00
2018-11-04T07:16:44.412Z,3672.00
2018-11-04T07:17:44.439Z,3740.00
2018-11-04T07:18:44.467Z,4052.00
2018-11-04T07:19:44.510Z,4544.00
2018-11-04T07:20:44.524Z,4824.00
2018-11-04T07:21:44.552Z,4804.00
2018-11-04T07:22:44.629Z,4740.00
2018-11-04T07:23:44.609Z,4792.00
2018-11-04T07:24:44.636Z,4968.00
2018-11-04T07:25:44.689Z,5164.00
2018-11-04T07:26:44.693Z,5212.00
2018-11-04T07:27:44.722Z,5196.00
2018-11-04T07:28:44.750Z,5204.00
2018-11-04T07:29:44.777Z,5296.00
2018-11-04T07:30:44.807Z,5560.00
2018-11-04T07:31:44.835Z,5644.00
2018-11-04T07:32:44.863Z,5860.00
2018-11-04T07:33:44.892Z,6244.00
2018-11-04T07:34:44.925Z,6460.00
2018-11-04T07:35:44.950Z,6616.00
2018-11-04T07:36:44.987Z,6512.00
2018-11-04T07:37:45.007Z,6796.00
2018-11-04T07:38:45.036Z,6796.00
2018-11-04T07:39:45.065Z,6896.00
2018-11-04T07:40:45.094Z,7000.00
2018-11-04T07:41:45.126Z,7188.00
2018-11-04T07:42:45.152Z,7616.00
2018-11-04T07:43:45.186Z,7836.00
2018-11-04T07:44:45.209Z,7976.00
2018-11-04T07:45:45.238Z,7884.00
2018-11-04T07:46:45.267Z,8216.00
2018-11-04T07:47:45.297Z,8288.00
2018-11-04T07:48:45.325Z,8376.00
2018-11-04T07:49:45.355Z,8472.00
2018-11-04T07:50:45.492Z,8664.00
2018-11-04T07:51:45.416Z,8524.00
2018-11-04T07:52:45.444Z,8912.00
2018-11-04T07:53:45.473Z,8768.00
2018-11-04T07:54:45.516Z,9144.00
2018-11-04T07:55:45.533Z,9444.00
2018-11-04T07:56:45.582Z,9612.00
2018-11-04T07:57:47.246Z,9384.00
2018-11-04T07:58:45.624Z,9732.00
2018-11-04T07:59:45.652Z,10564.00
2018-11-04T08:00:45.737Z,10600.00
2018-11-04T08:01:45.716Z,10396.00
2018-11-04T08:02:45.744Z,8900.00
2018-11-04T08:03:45.774Z,11344.00
2018-11-04T08:04:45.802Z,11516.00
2018-11-04T08:05:45.832Z,11284.00
2018-11-04T08:06:45.862Z,11160.00
2018-11-04T08:07:45.896Z,10848.00
2018-11-04T08:08:45.923Z,11420.00
2018-11-04T08:09:45.955Z,10736.00
2018-11-04T08:10:45.993Z,11116.00
2018-11-04T08:11:46.017Z,11956.00
2018-11-04T08:12:46.045Z,12944.00
2018-11-04T08:13:46.078Z,13276.00
2018-11-04T08:14:46.108Z,13532.00
2018-11-04T08:15:46.141Z,14664.00
2018-11-04T08:16:46.172Z,14272.00
2018-11-04T08:17:46.200Z,14008.00
2018-11-04T08:18:46.233Z,13592.00
2018-11-04T08:19:46.263Z,14144.00
2018-11-04T08:20:46.294Z,14384.00
2018-11-04T08:21:46.327Z,14752.00
2018-11-04T08:22:46.358Z,14652.00
2018-11-04T08:23:46.391Z,14940.00
2018-11-04T08:24:46.420Z,16256.00
2018-11-04T08:25:46.452Z,16352.00
2018-11-04T08:26:46.484Z,16608.00
2018-11-04T08:27:46.617Z,16512.00
2018-11-04T08:28:46.547Z,17120.00
2018-11-04T08:29:46.579Z,18336.00
2018-11-04T08:30:46.615Z,17216.00
2018-11-04T08:31:46.646Z,18080.00
2018-11-04T08:32:46.677Z,16128.00
2018-11-04T08:33:46.709Z,16448.00
2018-11-04T08:34:46.743Z,16224.00
2018-11-04T08:35:46.775Z,16928.00
2018-11-04T08:36:46.811Z,17376.00
2018-11-04T08:37:46.841Z,19488.00
2018-11-04T08:38:46.873Z,19904.00
2018-11-04T08:39:47.084Z,20576.00
2018-11-04T08:40:46.941Z,21184.00
2018-11-04T08:41:46.972Z,21408.00
2018-11-04T08:42:47.005Z,21408.00
2018-11-04T08:43:47.041Z,20832.00
2018-11-04T08:44:47.073Z,21312.00
2018-11-04T08:45:47.149Z,21216.00
2018-11-04T08:46:47.141Z,21952.00
2018-11-04T08:47:47.175Z,21376.00
2018-11-04T08:48:47.207Z,21824.00
2018-11-04T08:49:47.241Z,20832.00
2018-11-04T08:50:47.276Z,21216.00
2018-11-04T08:51:47.311Z,21088.00
2018-11-04T08:52:47.344Z,21760.00
2018-11-04T08:53:47.380Z,17728.00
2018-11-04T08:54:47.414Z,19296.00
2018-11-04T08:55:47.449Z,18944.00
2018-11-04T08:56:47.482Z,17792.00
2018-11-04T08:57:47.517Z,16512.00
2018-11-04T08:58:47.553Z,16256.00
2018-11-04T08:59:47.669Z,14448.00
2018-11-04T09:00:47.622Z,15212.00
2018-11-04T09:01:47.656Z,14880.00
2018-11-04T09:02:47.692Z,13848.00
2018-11-04T09:03:47.727Z,15144.00
2018-11-04T09:04:47.761Z,15084.00
2018-11-04T09:05:47.796Z,16224.00
2018-11-04T09:06:47.830Z,17312.00
2018-11-04T09:07:47.865Z,17120.00
2018-11-04T09:08:47.898Z,16256.00
2018-11-04T09:09:47.939Z,16864.00
2018-11-04T09:10:47.968Z,16768.00
2018-11-04T09:11:48.003Z,15648.00
2018-11-04T09:12:48.036Z,17248.00
2018-11-04T09:13:48.072Z,16992.00
2018-11-04T09:14:48.106Z,18624.00
2018-11-04T09:15:48.146Z,19072.00
2018-11-04T09:16:48.175Z,18464.00
2018-11-04T09:17:48.210Z,18624.00
2018-11-04T09:18:48.245Z,17056.00
2018-11-04T09:19:48.279Z,16448.00
2018-11-04T09:20:48.314Z,17696.00
2018-11-04T09:21:48.527Z,18496.00
2018-11-04T09:22:48.383Z,20064.00
2018-11-04T09:23:48.481Z,21952.00
2018-11-04T09:24:48.456Z,21152.00
2018-11-04T09:25:48.486Z,20736.00
2018-11-04T09:26:48.521Z,19360.00
2018-11-04T09:27:48.558Z,19296.00
2018-11-04T09:28:48.591Z,19136.00
2018-11-04T09:29:48.627Z,19360.00
2018-11-04T09:30:48.662Z,19072.00
2018-11-04T09:31:48.698Z,18880.00
2018-11-04T09:32:48.732Z,20352.00
2018-11-04T09:33:48.768Z,22432.00
2018-11-04T09:34:48.841Z,23648.00
2018-11-04T09:35:49.051Z,23808.00
2018-11-04T09:36:48.872Z,25376.00
2018-11-04T09:37:48.910Z,26240.00
2018-11-04T09:38:48.944Z,26208.00
2018-11-04T09:39:48.980Z,29536.00
2018-11-04T09:40:49.015Z,25248.00
2018-11-04T09:41:49.052Z,28960.00
2018-11-04T09:42:49.089Z,28832.00
2018-11-04T09:43:49.124Z,28576.00
2018-11-04T09:44:49.159Z,30080.00
2018-11-04T09:45:49.196Z,33760.00
2018-11-04T09:46:49.232Z,36544.00
2018-11-04T09:47:49.269Z,39776.00
2018-11-04T09:48:49.313Z,40800.00
2018-11-04T09:49:49.387Z,43040.00
2018-11-04T09:50:49.377Z,44672.00
2018-11-04T09:51:49.414Z,44576.00
2018-11-04T09:52:49.453Z,48608.00
2018-11-04T09:53:49.488Z,47712.00
2018-11-04T09:54:49.527Z,48640.00
2018-11-04T09:55:49.566Z,50048.00
2018-11-04T09:56:49.625Z,53248.00
2018-11-04T09:57:49.642Z,53760.00
2018-11-04T09:58:49.678Z,53440.00
2018-11-04T09:59:49.716Z,55360.00
2018-11-04T10:00:49.754Z,55840.00
2018-11-04T10:01:49.792Z,57408.00
2018-11-04T10:02:49.831Z,55648.00
2018-11-04T10:03:49.871Z,56288.00
2018-11-04T10:04:49.911Z,57632.00
2018-11-04T10:05:49.949Z,56896.00
2018-11-04T10:06:49.988Z,58304.00
2018-11-04T10:07:50.028Z,59552.00
2018-11-04T10:08:50.067Z,58304.00
2018-11-04T10:09:50.113Z,53792.00
2018-11-04T10:10:50.148Z,54752.00
2018-11-04T10:11:50.191Z,57472.00
2018-11-04T10:12:50.228Z,56832.00
2018-11-04T10:13:50.270Z,64608.00
2018-11-04T10:14:50.312Z,64896.00
2018-11-04T10:15:50.352Z,63104.00
2018-11-04T10:17:50.434Z,66240.00
2018-11-04T10:18:50.583Z,66176.00
2018-11-04T10:19:50.833Z,66016.00
2018-11-04T10:20:51.070Z,65792.00
2018-11-04T10:21:50.599Z,66176.00
2018-11-04T10:22:50.642Z,65856.00
2018-11-04T10:23:50.684Z,66848.00
2018-11-04T10:24:50.725Z,69312.00
2018-11-04T10:25:50.767Z,69440.00
2018-11-04T10:26:50.812Z,68576.00
2018-11-04T10:27:50.852Z,67680.00
2018-11-04T10:28:53.517Z,68192.00
2018-11-04T10:29:50.940Z,68032.00
2018-11-04T10:30:50.982Z,70176.00
2018-11-04T10:31:51.025Z,70432.00
2018-11-04T10:32:51.067Z,69440.00
2018-11-04T10:33:51.109Z,70272.00
2018-11-04T10:34:51.154Z,69664.00
2018-11-04T10:35:51.197Z,69440.00
2018-11-04T10:36:51.239Z,69952.00
2018-11-04T10:37:51.283Z,70688.00
2018-11-04T10:38:51.327Z,69248.00
2018-11-04T10:39:51.375Z,69280.00
2018-11-04T10:40:51.414Z,69888.00
2018-11-04T10:41:51.463Z,68832.00
2018-11-04T10:42:51.502Z,70368.00
2018-11-04T10:43:51.547Z,71392.00
2018-11-04T10:44:51.590Z,72512.00
2018-11-04T10:45:51.634Z,70624.00
2018-11-04T10:46:51.679Z,70560.00
2018-11-04T10:47:51.724Z,69632.00
2018-11-04T10:48:51.767Z,73312.00
2018-11-04T10:49:51.873Z,73696.00
2018-11-04T10:50:51.857Z,72352.00
2018-11-04T10:51:51.904Z,71904.00
2018-11-04T10:52:51.946Z,70880.00
2018-11-04T10:53:51.991Z,71392.00
2018-11-04T10:54:52.035Z,72768.00
2018-11-04T10:55:52.242Z,72928.00
2018-11-04T10:56:52.126Z,72768.00
2018-11-04T10:57:52.171Z,72960.00
2018-11-04T10:58:52.274Z,74752.00
2018-11-04T10:59:52.263Z,76448.00
2018-11-04T11:00:52.306Z,76576.00
2018-11-04T11:01:52.352Z,75712.00
2018-11-04T11:02:52.398Z,76480.00
2018-11-04T11:03:52.469Z,76608.00
2018-11-04T11:04:52.488Z,75808.00
2018-11-04T11:05:52.533Z,75712.00
2018-11-04T11:06:52.600Z,77056.00
2018-11-04T11:08:52.670Z,77504.00
2018-11-04T11:10:52.810Z,75520.00
2018-11-04T11:11:52.823Z,76768.00
2018-11-04T11:12:52.852Z,75456.00
2018-11-04T11:13:52.899Z,74176.00
2018-11-04T11:14:52.945Z,75648.00
2018-11-04T11:15:53.013Z,77376.00
2018-11-04T11:16:53.037Z,78144.00
2018-11-04T11:17:56.925Z,78496.00
2018-11-04T11:18:53.131Z,77824.00
2018-11-04T11:19:53.175Z,78720.00
2018-11-04T11:20:55.041Z,81632.00
2018-11-04T11:21:53.289Z,51744.00
2018-11-04T11:23:53.694Z,78176.00
2018-11-04T11:24:53.432Z,76736.00
2018-11-04T11:25:53.452Z,69696.00
2018-11-04T11:26:53.499Z,78240.00
2018-11-04T11:27:53.597Z,80384.00
2018-11-04T11:28:53.592Z,76224.00
2018-11-04T11:29:53.654Z,78784.00
2018-11-04T11:30:53.686Z,79840.00
2018-11-04T11:31:53.733Z,54400.00
2018-11-04T11:32:53.777Z,75936.00
2018-11-04T11:33:53.824Z,63232.00
2018-11-04T11:34:53.872Z,80192.00
2018-11-04T11:35:53.918Z,74656.00
2018-11-04T11:36:53.965Z,79744.00
2018-11-04T11:37:54.128Z,81408.00
2018-11-04T11:38:54.057Z,61824.00
2018-11-04T11:39:54.104Z,83392.00
2018-11-04T11:40:54.151Z,83456.00
2018-11-04T11:41:54.196Z,83840.00
2018-11-04T11:42:54.247Z,87520.00
2018-11-04T11:43:54.292Z,32672.00
2018-11-04T11:44:57.106Z,64128.00
2018-11-04T11:45:54.385Z,25632.00
2018-11-04T11:46:54.431Z,30016.00
2018-11-04T11:47:54.504Z,20672.00
2018-11-04T11:48:54.523Z,22912.00
2018-11-04T11:49:54.570Z,26464.00
2018-11-04T11:50:54.617Z,24736.00
2018-11-04T11:51:54.666Z,21696.00
2018-11-04T11:52:54.706Z,20288.00
2018-11-04T11:53:54.752Z,20448.00
2018-11-04T11:54:54.800Z,20224.00
2018-11-04T11:55:54.841Z,20576.00
2018-11-04T11:56:54.886Z,21024.00
2018-11-04T11:57:54.928Z,21536.00
2018-11-04T11:58:54.970Z,22048.00
2018-11-04T11:59:55.014Z,21920.00
2018-11-04T12:00:55.055Z,21632.00
2018-11-04T12:01:55.143Z,21056.00
2018-11-04T12:02:55.147Z,20480.00
2018-11-04T12:03:55.181Z,20320.00
2018-11-04T12:04:55.222Z,20256.00
2018-11-04T12:05:55.265Z,19936.00
2018-11-04T12:06:55.306Z,19712.00
2018-11-04T12:07:55.345Z,19200.00
2018-11-04T12:08:55.392Z,18368.00
2018-11-04T12:09:55.429Z,17728.00
2018-11-04T12:10:55.467Z,17408.00
2018-11-04T12:11:59.142Z,17056.00
2018-11-04T12:12:55.547Z,17440.00
2018-11-04T12:13:55.587Z,17600.00
2018-11-04T12:14:55.626Z,17568.00
2018-11-04T12:15:55.689Z,17600.00
2018-11-04T12:16:55.725Z,17312.00
2018-11-04T12:17:55.778Z,16992.00
2018-11-04T12:18:55.782Z,17376.00
2018-11-04T12:19:55.821Z,17312.00
2018-11-04T12:20:55.859Z,17280.00
2018-11-04T12:21:55.898Z,17376.00
2018-11-04T12:22:55.937Z,17376.00
2018-11-04T12:23:56.036Z,16992.00
2018-11-04T12:24:56.012Z,16928.00
2018-11-04T12:25:56.052Z,16800.00
2018-11-04T12:26:56.416Z,16768.00
2018-11-04T12:27:56.127Z,16992.00
2018-11-04T12:28:56.164Z,16736.00
2018-11-04T12:29:56.201Z,16672.00
2018-11-04T12:30:56.239Z,16736.00
2018-11-04T12:31:56.276Z,16268.00
2018-11-04T12:32:56.313Z,15836.00
2018-11-04T12:33:56.350Z,15696.00
2018-11-04T12:34:56.388Z,15680.00
2018-11-04T12:35:56.430Z,15788.00